Terminal Aerodrome Forecast
Issued by NWS

Home | Current Version | Previous Version | Text Only | Print | Product List | Glossary On
Versions: 1 2 3 4 5 6 7 8 9 10 11 12 13 14 15
656
FTUS44 KCRP 261720
TAFLRD
TAF
KLRD 261720Z 2618/2718 32020G28KT P6SM SKC
     FM262300 35015KT P6SM SKC
     FM270500 05009KT P6SM SCT250
     FM271400 13010KT P6SM SKC=

USA.gov is the U.S. government's official web portal to all federal, state and local government web resources and services.